createdAt,value
2018-09-15T00:01:50.353Z,1.70
2018-09-15T00:04:19.971Z,2.10
2018-09-15T00:06:50.256Z,1.80
2018-09-15T00:09:21.483Z,2.08
2018-09-15T00:11:51.193Z,1.73
2018-09-15T00:14:20.786Z,2.00
2018-09-15T00:16:50.493Z,1.95
2018-09-15T00:19:19.926Z,1.80
2018-09-15T00:21:49.293Z,1.45
2018-09-15T00:24:18.782Z,1.60
2018-09-15T00:26:48.310Z,1.80
2018-09-15T00:29:18.098Z,2.20
2018-09-15T00:31:47.567Z,1.85
2018-09-15T00:34:17.167Z,1.87
2018-09-15T00:36:46.720Z,1.65
2018-09-15T00:39:16.408Z,1.80
2018-09-15T00:41:46.033Z,1.40
2018-09-15T00:44:16.166Z,1.50
2018-09-15T00:46:46.305Z,1.60
2018-09-15T00:49:16.206Z,1.45
2018-09-15T00:51:46.170Z,1.60
2018-09-15T00:54:15.780Z,1.58
2018-09-15T00:56:46.634Z,1.40
2018-09-15T00:59:17.288Z,1.40
2018-09-15T01:01:46.806Z,1.50
2018-09-15T01:04:16.410Z,1.35
2018-09-15T01:06:46.474Z,1.20
2018-09-15T01:09:15.806Z,1.40
2018-09-15T01:11:45.557Z,2.00
2018-09-15T01:14:15.205Z,1.40
2018-09-15T01:16:45.962Z,1.23
2018-09-15T01:19:15.575Z,1.37
2018-09-15T01:21:45.261Z,1.45
2018-09-15T01:24:14.705Z,1.30
2018-09-15T01:26:44.074Z,1.48
2018-09-15T01:29:13.778Z,1.40
2018-09-15T01:31:43.458Z,1.10
2018-09-15T01:34:13.644Z,1.40
2018-09-15T01:36:43.439Z,1.40
2018-09-15T01:39:13.026Z,1.40
2018-09-15T01:41:42.872Z,1.30
2018-09-15T01:44:12.885Z,1.20
2018-09-15T01:46:42.697Z,1.37
2018-09-15T01:49:12.663Z,1.27
2018-09-15T01:51:42.375Z,1.60
2018-09-15T01:54:11.999Z,1.52
2018-09-15T01:56:41.505Z,1.23
2018-09-15T01:59:11.095Z,1.42
2018-09-15T02:01:41.062Z,1.20
2018-09-15T02:04:11.259Z,1.30
2018-09-15T02:06:41.590Z,1.30
2018-09-15T02:09:11.391Z,1.58
2018-09-15T02:11:40.582Z,1.52
2018-09-15T02:14:13.888Z,1.55
2018-09-15T02:16:44.344Z,1.50
2018-09-15T02:19:15.232Z,1.35
2018-09-15T02:21:44.818Z,1.55
2018-09-15T02:24:14.402Z,1.30
2018-09-15T02:26:46.390Z,1.50
2018-09-15T02:29:15.795Z,1.30
2018-09-15T02:31:46.535Z,1.60
2018-09-15T02:34:16.321Z,1.77
2018-09-15T02:36:46.048Z,2.25
2018-09-15T02:39:16.758Z,2.20
2018-09-15T02:41:46.494Z,1.80
2018-09-15T02:44:15.964Z,1.52
2018-09-15T02:46:46.261Z,1.70
2018-09-15T02:49:15.938Z,1.50
2018-09-15T02:51:45.500Z,1.73
2018-09-15T02:54:15.424Z,1.92
2018-09-15T02:56:45.004Z,1.60
2018-09-15T02:59:15.338Z,1.77
2018-09-15T03:01:44.928Z,1.60
2018-09-15T03:04:14.452Z,1.70
2018-09-15T03:06:44.312Z,1.75
2018-09-15T03:09:13.831Z,1.80
2018-09-15T03:11:43.948Z,1.80
2018-09-15T03:14:13.853Z,1.50
2018-09-15T03:16:44.767Z,1.73
2018-09-15T03:19:14.160Z,1.70
2018-09-15T03:21:43.839Z,1.70
2018-09-15T03:24:13.546Z,1.92
2018-09-15T03:26:43.360Z,2.50
2018-09-15T03:29:13.328Z,1.70
2018-09-15T03:31:45.443Z,1.60
2018-09-15T03:34:15.685Z,1.70
2018-09-15T03:36:46.585Z,1.65
2018-09-15T03:39:16.279Z,1.55
2018-09-15T03:41:47.437Z,2.10
2018-09-15T03:44:18.290Z,2.35
2018-09-15T03:46:48.067Z,2.08
2018-09-15T03:49:17.624Z,2.15
2018-09-15T03:51:47.768Z,2.20
2018-09-15T03:54:17.694Z,1.90
2018-09-15T03:56:47.625Z,2.15
2018-09-15T03:59:17.373Z,2.20
2018-09-15T04:01:49.312Z,2.10
2018-09-15T04:04:19.072Z,1.85
2018-09-15T04:06:49.668Z,2.40
2018-09-15T04:09:19.261Z,2.75
2018-09-15T04:11:50.049Z,2.17
2018-09-15T04:14:19.689Z,2.00
2018-09-15T04:16:49.791Z,1.83
2018-09-15T04:19:19.156Z,1.77
2018-09-15T04:21:49.285Z,3.72
2018-09-15T04:24:19.202Z,6.45
2018-09-15T04:26:49.788Z,2.20
2018-09-15T04:29:19.566Z,1.95
2018-09-15T04:31:49.219Z,2.70
2018-09-15T04:34:19.182Z,2.28
2018-09-15T04:36:49.840Z,2.40
2018-09-15T04:39:19.703Z,11.05
2018-09-15T04:41:49.311Z,6.93
2018-09-15T04:44:18.793Z,3.20
2018-09-15T04:46:48.394Z,2.00
2018-09-15T04:49:18.311Z,3.75
2018-09-15T04:51:48.608Z,6.62
2018-09-15T04:54:18.352Z,2.75
2018-09-15T04:56:47.984Z,2.10
2018-09-15T04:59:19.879Z,2.00
2018-09-15T05:01:49.655Z,2.10
2018-09-15T05:04:20.694Z,1.80
2018-09-15T05:06:50.653Z,1.70
2018-09-15T05:09:20.201Z,2.00
2018-09-15T05:11:49.596Z,2.00
2018-09-15T05:14:19.189Z,1.87
2018-09-15T05:16:49.255Z,2.00
2018-09-15T05:19:19.789Z,2.47
2018-09-15T05:21:51.706Z,2.78
2018-09-15T05:24:21.669Z,2.67
2018-09-15T05:26:51.709Z,2.47
2018-09-15T05:29:22.453Z,2.45
2018-09-15T05:31:52.842Z,2.58
2018-09-15T05:34:22.624Z,2.28
2018-09-15T05:36:52.110Z,2.37
2018-09-15T05:39:21.694Z,2.40
2018-09-15T05:41:51.765Z,2.75
2018-09-15T05:44:21.336Z,2.53
2018-09-15T05:46:50.760Z,2.60
2018-09-15T05:49:20.539Z,2.65
2018-09-15T05:51:50.902Z,3.00
2018-09-15T05:54:20.404Z,2.53
2018-09-15T05:56:50.841Z,3.30
2018-09-15T05:59:21.646Z,2.83
2018-09-15T06:01:51.132Z,2.92
2018-09-15T06:04:21.068Z,2.70
2018-09-15T06:06:53.286Z,3.15
2018-09-15T06:09:22.966Z,2.80
2018-09-15T06:11:52.357Z,2.85
2018-09-15T06:14:21.982Z,2.97
2018-09-15T06:16:51.659Z,2.87
2018-09-15T06:19:21.335Z,2.90
2018-09-15T06:21:52.259Z,2.87
2018-09-15T06:24:22.224Z,2.58
2018-09-15T06:26:52.776Z,2.78
2018-09-15T06:29:22.326Z,2.87
2018-09-15T06:31:52.004Z,3.00
2018-09-15T06:34:21.604Z,2.70
2018-09-15T06:36:52.704Z,2.45
2018-09-15T06:39:22.435Z,2.80
2018-09-15T06:41:53.108Z,2.90
2018-09-15T06:44:23.315Z,3.65
2018-09-15T06:46:53.093Z,4.30
2018-09-15T06:49:23.621Z,6.82
2018-09-15T06:51:53.136Z,6.45
2018-09-15T06:54:22.583Z,3.03
2018-09-15T06:56:53.487Z,3.30
2018-09-15T06:59:23.952Z,2.70
2018-09-15T07:01:53.636Z,2.37
2018-09-15T07:04:23.282Z,3.00
2018-09-15T07:06:53.807Z,2.50
2018-09-15T07:09:24.424Z,2.40
2018-09-15T07:11:53.954Z,3.07
2018-09-15T07:14:23.487Z,2.85
2018-09-15T07:16:53.529Z,2.70
2018-09-15T07:19:23.800Z,1.73
2018-09-15T07:21:53.578Z,2.63
2018-09-15T07:24:22.862Z,1.70
2018-09-15T07:26:53.428Z,1.90
2018-09-15T07:29:22.884Z,1.90
2018-09-15T07:31:52.575Z,1.90
2018-09-15T07:34:22.927Z,1.57
2018-09-15T07:36:53.103Z,1.57
2018-09-15T07:39:23.080Z,1.90
2018-09-15T07:41:52.468Z,1.50
2018-09-15T07:44:22.336Z,1.20
2018-09-15T07:46:52.022Z,1.33
2018-09-15T07:49:21.774Z,1.83
2018-09-15T07:51:51.769Z,1.50
2018-09-15T07:54:21.555Z,1.40
2018-09-15T07:56:52.967Z,1.70
2018-09-15T07:59:22.748Z,1.70
2018-09-15T08:01:52.558Z,1.60
2018-09-15T08:04:22.194Z,1.50
2018-09-15T08:06:52.924Z,1.50
2018-09-15T08:09:22.499Z,1.40
2018-09-15T08:11:52.127Z,1.53
2018-09-15T08:14:21.733Z,1.57
2018-09-15T08:16:51.507Z,1.63
2018-09-15T08:19:21.775Z,1.50
2018-09-15T08:21:51.341Z,1.57
2018-09-15T08:24:20.811Z,1.90
2018-09-15T08:26:50.582Z,1.70
2018-09-15T08:29:20.248Z,2.20
2018-09-15T08:31:49.707Z,1.50
2018-09-15T08:34:19.588Z,1.73
2018-09-15T08:36:49.716Z,1.90
2018-09-15T08:39:19.424Z,4.40
2018-09-15T08:41:50.031Z,4.53
2018-09-15T08:44:19.356Z,1.90
2018-09-15T08:46:49.003Z,1.60
2018-09-15T08:49:18.185Z,1.60
2018-09-15T08:51:47.626Z,1.60
2018-09-15T08:54:17.907Z,1.50
2018-09-15T08:56:47.381Z,1.70
2018-09-15T08:59:17.016Z,1.70
2018-09-15T09:01:46.794Z,1.70
2018-09-15T09:04:16.673Z,1.50
2018-09-15T09:06:46.075Z,1.53
2018-09-15T09:09:15.648Z,1.70
2018-09-15T09:11:45.751Z,1.53
2018-09-15T09:14:15.949Z,1.47
2018-09-15T09:16:45.433Z,1.40
2018-09-15T09:19:14.861Z,1.30
2018-09-15T09:21:44.464Z,1.10
2018-09-15T09:24:14.198Z,1.30
2018-09-15T09:26:43.750Z,1.10
2018-09-15T09:29:13.218Z,1.10
2018-09-15T09:31:42.986Z,1.30
2018-09-15T09:34:13.380Z,1.20
2018-09-15T09:36:43.234Z,1.40
2018-09-15T09:39:12.646Z,1.40
2018-09-15T09:41:42.375Z,1.60
2018-09-15T09:44:11.833Z,1.60
2018-09-15T09:46:41.287Z,1.40
2018-09-15T09:49:11.376Z,1.20
2018-09-15T09:51:40.935Z,1.10
2018-09-15T09:54:10.531Z,1.40
2018-09-15T09:56:40.415Z,1.30
2018-09-15T09:59:11.691Z,1.10
2018-09-15T10:01:41.477Z,1.37
2018-09-15T10:04:14.030Z,1.30
2018-09-15T10:06:44.089Z,1.10
2018-09-15T10:09:13.820Z,1.20
2018-09-15T10:11:43.433Z,1.23
2018-09-15T10:14:13.293Z,1.20
2018-09-15T10:16:42.746Z,1.40
2018-09-15T10:19:13.160Z,1.73
2018-09-15T10:21:42.574Z,1.40
2018-09-15T10:24:13.040Z,1.40
2018-09-15T10:26:42.549Z,1.50
2018-09-15T10:29:12.083Z,1.40
2018-09-15T10:31:41.480Z,1.57
2018-09-15T10:34:10.739Z,1.60
2018-09-15T10:36:40.870Z,1.67
2018-09-15T10:39:11.412Z,1.33
2018-09-15T10:41:41.038Z,1.30
2018-09-15T10:44:10.626Z,1.40
2018-09-15T10:46:41.043Z,1.30
2018-09-15T10:49:10.690Z,1.23
2018-09-15T10:51:40.063Z,1.30
2018-09-15T10:54:09.890Z,1.33
2018-09-15T10:56:39.881Z,1.30
2018-09-15T10:59:09.513Z,1.50
2018-09-15T11:01:39.307Z,1.17
2018-09-15T11:04:08.834Z,1.30
2018-09-15T11:06:39.693Z,1.10
2018-09-15T11:09:09.374Z,1.20
2018-09-15T11:11:38.910Z,1.40
2018-09-15T11:14:08.560Z,1.33
2018-09-15T11:16:38.092Z,1.50
2018-09-15T11:19:08.631Z,1.27
2018-09-15T11:21:38.112Z,1.50
2018-09-15T11:24:07.365Z,1.50
2018-09-15T11:26:37.925Z,1.40
2018-09-15T11:29:08.291Z,1.40
2018-09-15T11:31:37.905Z,1.10
2018-09-15T11:34:07.564Z,1.33
2018-09-15T11:36:37.329Z,1.33
2018-09-15T11:39:07.423Z,1.30
2018-09-15T11:41:37.338Z,1.30
2018-09-15T11:44:06.764Z,1.50
2018-09-15T11:46:36.258Z,1.30
2018-09-15T11:49:05.867Z,1.33
2018-09-15T11:51:35.483Z,1.50
2018-09-15T11:54:07.121Z,1.20
2018-09-15T11:56:36.490Z,1.20
2018-09-15T11:59:06.440Z,1.20
2018-09-15T12:01:36.150Z,1.60
2018-09-15T12:04:09.170Z,1.33
2018-09-15T12:06:38.889Z,1.37
2018-09-15T12:09:08.453Z,1.50
2018-09-15T12:11:38.391Z,1.67
2018-09-15T12:14:08.317Z,1.40
2018-09-15T12:16:38.010Z,1.30
2018-09-15T12:19:07.608Z,1.30
2018-09-15T12:21:36.854Z,1.10
2018-09-15T12:24:06.605Z,1.23
2018-09-15T12:26:36.925Z,1.40
2018-09-15T12:29:06.640Z,1.20
2018-09-15T12:31:36.179Z,1.30
2018-09-15T12:34:05.946Z,1.20
2018-09-15T12:36:35.391Z,1.40
2018-09-15T12:39:05.463Z,1.50
2018-09-15T12:41:34.619Z,1.70
2018-09-15T12:44:04.504Z,1.30
2018-09-15T12:46:34.513Z,1.90
2018-09-15T12:49:03.886Z,1.50
2018-09-15T12:51:33.456Z,1.30
2018-09-15T12:54:03.190Z,1.63
2018-09-15T12:56:33.042Z,1.37
2018-09-15T12:59:02.567Z,1.50
2018-09-15T13:01:32.593Z,1.50
2018-09-15T13:04:01.944Z,1.50
2018-09-15T13:06:31.576Z,1.50
2018-09-15T13:09:01.441Z,1.40
2018-09-15T13:11:31.381Z,1.30
2018-09-15T13:14:00.960Z,1.80
2018-09-15T13:16:30.434Z,1.60
2018-09-15T13:18:59.834Z,1.30
2018-09-15T13:21:29.232Z,1.50
2018-09-15T13:23:59.612Z,1.30
2018-09-15T13:26:29.635Z,1.30
2018-09-15T13:28:59.400Z,1.50
2018-09-15T13:31:29.522Z,1.40
2018-09-15T13:33:59.217Z,1.30
2018-09-15T13:36:28.743Z,1.30
2018-09-15T13:38:59.095Z,1.57
2018-09-15T13:41:29.506Z,1.70
2018-09-15T13:43:59.895Z,1.60
2018-09-15T13:46:30.179Z,1.60
2018-09-15T13:49:01.867Z,1.50
2018-09-15T13:51:32.797Z,1.50
2018-09-15T13:54:02.573Z,1.47
2018-09-15T13:56:33.070Z,1.50
2018-09-15T13:59:03.032Z,1.20
2018-09-15T14:01:34.161Z,1.43
2018-09-15T14:04:04.486Z,1.43
2018-09-15T14:06:36.631Z,1.40
2018-09-15T14:09:06.497Z,1.50
2018-09-15T14:11:35.993Z,1.40
2018-09-15T14:14:05.304Z,1.27
2018-09-15T14:16:34.683Z,1.27
2018-09-15T14:19:04.303Z,1.30
2018-09-15T14:21:33.919Z,1.60
2018-09-15T14:24:03.442Z,1.43
2018-09-15T14:26:32.815Z,1.30
2018-09-15T14:29:02.875Z,1.40
2018-09-15T14:31:32.550Z,1.40
2018-09-15T14:34:02.351Z,1.40
2018-09-15T14:36:31.934Z,1.30
2018-09-15T14:39:02.385Z,1.30
2018-09-15T14:41:31.999Z,1.13
2018-09-15T14:44:01.600Z,1.33
2018-09-15T14:46:31.127Z,1.53
2018-09-15T14:49:00.837Z,1.40
2018-09-15T14:51:30.385Z,1.40
2018-09-15T14:54:00.165Z,1.57
2018-09-15T14:56:29.974Z,1.50
2018-09-15T14:59:00.732Z,1.37
2018-09-15T15:01:31.061Z,1.40
2018-09-15T15:04:02.331Z,1.50
2018-09-15T15:06:31.884Z,1.80
2018-09-15T15:09:01.570Z,1.10
2018-09-15T15:11:31.160Z,1.50
2018-09-15T15:14:01.748Z,1.40
2018-09-15T15:16:31.191Z,1.63
2018-09-15T15:19:00.700Z,1.43
2018-09-15T15:21:31.149Z,1.40
2018-09-15T15:24:01.634Z,1.67
2018-09-15T15:26:32.809Z,2.10
2018-09-15T15:29:02.670Z,1.60
2018-09-15T15:31:32.260Z,1.30
2018-09-15T15:34:03.193Z,1.33
2018-09-15T15:36:33.595Z,1.70
2018-09-15T15:39:03.879Z,2.20
2018-09-15T15:41:33.433Z,1.90
2018-09-15T15:44:03.484Z,2.33
2018-09-15T15:46:33.473Z,2.30
2018-09-15T15:49:02.941Z,2.27
2018-09-15T15:51:32.415Z,2.47
2018-09-15T15:54:02.137Z,2.30
2018-09-15T15:56:31.701Z,2.10
2018-09-15T15:59:01.663Z,2.17
2018-09-15T16:01:31.179Z,1.90
2018-09-15T16:04:01.365Z,1.90
2018-09-15T16:06:31.005Z,1.90
2018-09-15T16:09:02.832Z,1.83
2018-09-15T16:11:33.561Z,1.80
2018-09-15T16:14:03.111Z,2.20
2018-09-15T16:16:33.162Z,2.00
2018-09-15T16:19:03.762Z,1.63
2018-09-15T16:21:33.243Z,1.90
2018-09-15T16:24:03.233Z,1.77
2018-09-15T16:26:35.258Z,1.77
2018-09-15T16:29:05.024Z,1.90
2018-09-15T16:31:35.591Z,1.70
2018-09-15T16:34:05.596Z,1.60
2018-09-15T16:36:35.194Z,1.70
2018-09-15T16:39:06.079Z,1.50
2018-09-15T16:41:36.793Z,1.40
2018-09-15T16:44:06.595Z,1.40
2018-09-15T16:46:35.949Z,1.30
2018-09-15T16:49:05.556Z,1.40
2018-09-15T16:51:35.083Z,1.33
2018-09-15T16:54:04.572Z,1.30
2018-09-15T16:56:34.472Z,1.47
2018-09-15T16:59:04.196Z,1.40
2018-09-15T17:01:36.680Z,1.60
2018-09-15T17:04:05.913Z,1.63
2018-09-15T17:06:36.429Z,1.90
2018-09-15T17:09:06.939Z,1.60
2018-09-15T17:11:36.353Z,1.60
2018-09-15T17:14:05.749Z,1.77
2018-09-15T17:16:35.311Z,1.57
2018-09-15T17:19:05.415Z,7.45
2018-09-15T17:21:35.614Z,1.70
2018-09-15T17:24:05.016Z,1.40
2018-09-15T17:26:34.488Z,1.50
2018-09-15T17:29:04.068Z,1.40
2018-09-15T17:31:33.569Z,1.60
2018-09-15T17:34:03.027Z,1.50
2018-09-15T17:36:32.438Z,1.20
2018-09-15T17:39:04.696Z,1.53
2018-09-15T17:41:34.676Z,1.43
2018-09-15T17:44:05.369Z,1.35
2018-09-15T17:46:34.843Z,1.40
2018-09-15T17:49:03.945Z,1.45
2018-09-15T17:51:34.633Z,1.35
2018-09-15T17:54:04.233Z,1.20
2018-09-15T17:56:35.025Z,1.40
2018-09-15T17:59:04.538Z,1.20
2018-09-15T18:01:33.953Z,1.40
2018-09-15T18:04:03.400Z,1.37
2018-09-15T18:06:33.379Z,1.20
2018-09-15T18:09:03.842Z,1.15
2018-09-15T18:11:33.398Z,1.35
2018-09-15T18:14:02.984Z,1.20
2018-09-15T18:16:34.088Z,1.37
2018-09-15T18:19:03.558Z,1.30
2018-09-15T18:21:33.920Z,1.23
2018-09-15T18:24:03.512Z,1.50
2018-09-15T18:26:34.089Z,1.52
2018-09-15T18:29:03.494Z,1.48
2018-09-15T18:31:33.208Z,1.40
2018-09-15T18:34:02.842Z,1.10
2018-09-15T18:36:32.425Z,1.20
2018-09-15T18:39:02.740Z,1.55
2018-09-15T18:41:32.190Z,1.25
2018-09-15T18:44:01.858Z,1.40
2018-09-15T18:46:31.262Z,1.40
2018-09-15T18:49:01.100Z,1.40
2018-09-15T18:51:30.522Z,1.30
2018-09-15T18:54:00.028Z,1.50
2018-09-15T18:56:30.155Z,1.20
2018-09-15T18:59:00.091Z,1.77
2018-09-15T19:01:29.513Z,1.40
2018-09-15T19:03:59.016Z,1.52
2018-09-15T19:06:28.641Z,1.50
2018-09-15T19:08:58.659Z,1.70
2018-09-15T19:11:28.168Z,1.65
2018-09-15T19:13:57.758Z,1.40
2018-09-15T19:16:27.442Z,1.40
2018-09-15T19:18:56.822Z,1.40
2018-09-15T19:21:26.307Z,1.73
2018-09-15T19:23:55.645Z,1.50
2018-09-15T19:26:25.805Z,1.90
2018-09-15T19:28:56.140Z,1.70
2018-09-15T19:31:25.875Z,3.47
2018-09-15T19:33:56.193Z,5.30
2018-09-15T19:36:25.822Z,3.00
2018-09-15T19:38:56.245Z,1.90
2018-09-15T19:41:25.728Z,1.70
2018-09-15T19:43:55.873Z,1.70
2018-09-15T19:46:27.360Z,1.50
2018-09-15T19:48:56.729Z,1.40
2018-09-15T19:51:26.078Z,1.65
2018-09-15T19:53:55.988Z,1.43
2018-09-15T19:56:25.769Z,1.50
2018-09-15T19:58:55.086Z,1.80
2018-09-15T20:01:24.405Z,2.03
2018-09-15T20:03:54.444Z,1.70
2018-09-15T20:06:23.990Z,1.95
2018-09-15T20:08:53.521Z,1.77
2018-09-15T20:11:23.064Z,1.62
2018-09-15T20:13:52.549Z,2.10
2018-09-15T20:16:22.789Z,2.10
2018-09-15T20:18:51.734Z,2.20
2018-09-15T20:21:20.660Z,2.00
2018-09-15T20:23:50.552Z,2.17
2018-09-15T20:26:20.576Z,2.33
2018-09-15T20:28:50.370Z,2.40
2018-09-15T20:31:20.312Z,2.97
2018-09-15T20:33:51.194Z,2.12
2018-09-15T20:36:21.146Z,2.83
2018-09-15T20:38:50.534Z,3.00
2018-09-15T20:41:20.285Z,2.80
2018-09-15T20:43:49.858Z,2.95
2018-09-15T20:46:19.357Z,3.22
2018-09-15T20:48:48.892Z,2.83
2018-09-15T20:51:18.892Z,3.15
2018-09-15T20:53:48.387Z,3.12
2018-09-15T20:56:18.175Z,4.03
2018-09-15T20:58:48.524Z,3.20
2018-09-15T21:01:17.846Z,3.80
2018-09-15T21:03:47.775Z,3.53
2018-09-15T21:06:17.443Z,3.22
2018-09-15T21:08:47.666Z,3.70
2018-09-15T21:11:17.212Z,3.80
2018-09-15T21:13:48.214Z,3.42
2018-09-15T21:16:17.804Z,5.10
2018-09-15T21:18:47.536Z,3.50
2018-09-15T21:21:19.943Z,3.67
2018-09-15T21:23:49.724Z,2.80
2018-09-15T21:26:19.313Z,3.53
2018-09-15T21:28:50.003Z,3.25
2018-09-15T21:31:19.390Z,3.10
2018-09-15T21:33:48.770Z,2.85
2018-09-15T21:36:18.685Z,3.83
2018-09-15T21:38:49.418Z,3.37
2018-09-15T21:41:19.793Z,3.30
2018-09-15T21:43:50.856Z,3.30
2018-09-15T21:46:21.089Z,3.05
2018-09-15T21:48:51.571Z,3.47
2018-09-15T21:51:21.202Z,3.25
2018-09-15T21:53:51.426Z,2.95
2018-09-15T21:56:22.392Z,3.28
2018-09-15T21:58:51.874Z,3.15
2018-09-15T22:01:22.291Z,3.37
2018-09-15T22:03:53.540Z,2.70
2018-09-15T22:06:23.848Z,3.10
2018-09-15T22:08:53.681Z,3.03
2018-09-15T22:11:23.922Z,3.12
2018-09-15T22:13:54.166Z,3.50
2018-09-15T22:16:24.002Z,3.60
2018-09-15T22:18:53.537Z,3.70
2018-09-15T22:21:23.589Z,3.65
2018-09-15T22:23:52.866Z,4.82
2018-09-15T22:26:23.399Z,3.25
2018-09-15T22:28:53.764Z,6.32
2018-09-15T22:31:22.912Z,2.55
2018-09-15T22:33:53.239Z,2.80
2018-09-15T22:36:22.967Z,2.58
2018-09-15T22:38:52.323Z,2.95
2018-09-15T22:41:21.923Z,3.10
2018-09-15T22:43:52.568Z,4.22
2018-09-15T22:46:22.489Z,5.25
2018-09-15T22:48:51.916Z,6.18
2018-09-15T22:51:21.743Z,7.75
2018-09-15T22:53:51.090Z,2.90
2018-09-15T22:56:20.927Z,2.65
2018-09-15T22:58:50.386Z,2.53
2018-09-15T23:01:19.914Z,2.62
2018-09-15T23:03:49.424Z,2.92
2018-09-15T23:06:18.804Z,2.95
2018-09-15T23:08:48.386Z,2.80
2018-09-15T23:11:17.942Z,3.25
2018-09-15T23:13:49.110Z,3.50
2018-09-15T23:16:18.857Z,2.50
2018-09-15T23:18:48.297Z,2.10
2018-09-15T23:21:17.871Z,2.20
2018-09-15T23:23:48.168Z,1.98
2018-09-15T23:26:17.737Z,2.25
2018-09-15T23:28:47.441Z,2.10
2018-09-15T23:31:17.183Z,2.20
2018-09-15T23:33:47.483Z,2.50
2018-09-15T23:36:18.667Z,2.83
2018-09-15T23:38:49.052Z,2.67
2018-09-15T23:41:18.763Z,3.10
2018-09-15T23:43:48.331Z,2.97
2018-09-15T23:46:17.744Z,3.22
2018-09-15T23:48:47.100Z,3.45
2018-09-15T23:51:16.602Z,2.97
2018-09-15T23:53:46.695Z,3.00
2018-09-15T23:56:16.906Z,2.67
2018-09-15T23:58:46.352Z,3.50
